James Turecamo — WDC7565 — position and weather

sailwx.info

Track history (hours):
 
Tides and Currents Weather Stations Pressure Air Temp Water Temp Dewpoint Dewpoint Depression Visibility Wind Speed Wind Dir Waves Ship Positions

James Turecamo

Owner: Moran Towing Corporation, New Canaan, CT. More information available from US FCC via Universal Licensing System and Coast Guard Vessel Documentation Center.

Last reported at 2016-Dec-07 15:32 UTC. Time now 2016-Dec-07 16:23 UTC.
Position N 40°38' W 074°08'.

Length 30 m; draft 4.5 m.

Type: Tug. MMSI: 367073380.

Date/timePositionNaut miles runAvg speedWind from/ knotsBaromVisibWave heightAir tempDewpointWater temp
2016-Dec-07 15:32N 40°38' W 074°08'0 0.0
2016-Dec-07 14:33N 40°38' W 074°08'0 0.0
2016-Dec-07 13:33N 40°38' W 074°08'0 0.0
2016-Dec-07 12:32N 40°38' W 074°08'0 0.0
2016-Dec-07 11:33N 40°38' W 074°08'0 0.0
2016-Dec-07 10:32N 40°38' W 074°08'0 0.0
2016-Dec-07 08:16N 40°38' W 074°08'0 0.0
2016-Dec-07 07:32N 40°38' W 074°08'0 0.0
2016-Dec-07 06:26N 40°38' W 074°08'1 0.5
2016-Dec-07 03:34N 40°39' W 074°06'1 0.7
2016-Dec-07 02:33N 40°39' W 074°07'3 3.2
2016-Dec-07 01:33N 40°42' W 074°08'2 2.1
2016-Dec-07 00:33N 40°40' W 074°09'1 1.3
2016-Dec-06 23:33N 40°38' W 074°08'0 0.0
2016-Dec-06 22:33N 40°38' W 074°08'0 0.0
2016-Dec-06 21:32N 40°38' W 074°08'2 2.3
2016-Dec-06 20:33N 40°39' W 074°05'1 0.4
2016-Dec-06 18:33N 40°40' W 074°04'0 0.0
2016-Dec-06 17:33N 40°40' W 074°04'1 0.7
2016-Dec-06 16:33N 40°39' W 074°05'2 2.2
2016-Dec-06 15:33N 40°38' W 074°08'0 0.0
2016-Dec-06 14:24N 40°38' W 074°08'0 0.0
2016-Dec-06 13:13N 40°38' W 074°08'0 0.0
2016-Dec-06 11:32N 40°38' W 074°08'0 0.0
2016-Dec-06 10:33N 40°38' W 074°08'0 0.0
2016-Dec-06 09:33N 40°38' W 074°08'0 0.0
2016-Dec-06 08:33N 40°38' W 074°08'0 0.0
2016-Dec-06 07:33N 40°38' W 074°08'0 0.0
2016-Dec-06 06:33N 40°38' W 074°08'0 0.0
2016-Dec-06 05:33N 40°38' W 074°08'0 0.0
2016-Dec-06 04:33N 40°38' W 074°08'0 0.0
2016-Dec-06 03:33N 40°38' W 074°08'0 0.0
2016-Dec-06 02:33N 40°38' W 074°08'0 0.0
2016-Dec-06 01:33N 40°38' W 074°08'3 2.8
2016-Dec-06 00:33N 40°38' W 074°11'1 0.9
2016-Dec-05 23:33N 40°38' W 074°12'1 0.9
2016-Dec-05 22:33N 40°38' W 074°11'3 2.8
2016-Dec-05 21:33N 40°38' W 074°08'0 0.0
2016-Dec-05 20:18N 40°38' W 074°08'0 0.0
2016-Dec-05 18:33N 40°38' W 074°08'0 0.0
2016-Dec-05 17:33N 40°38' W 074°08'4 4.3
2016-Dec-05 16:33N 40°40' W 074°02'4 4.3
2016-Dec-05 15:33N 40°38' W 074°08'0 0.0
2016-Dec-05 14:33N 40°38' W 074°08'0 0.0
2016-Dec-05 12:31N 40°38' W 074°08'0 0.0
2016-Dec-05 11:31N 40°38' W 074°08'0 0.0
2016-Dec-05 10:32N 40°38' W 074°08'0 0.0
2016-Dec-05 09:19N 40°38' W 074°08'0 0.0
2016-Dec-05 08:33N 40°38' W 074°08'3 3.4
2016-Dec-05 07:33N 40°38' W 074°12'3 2.7
2016-Dec-05 06:15N 40°38' W 074°08'0 0.0
2016-Dec-05 03:23N 40°38' W 074°08'0 0.0
2016-Dec-05 02:33N 40°38' W 074°08'0 0.0
2016-Dec-05 01:32N 40°38' W 074°08'0 0.0
2016-Dec-05 00:31N 40°38' W 074°08'0 0.0
2016-Dec-04 23:32N 40°38' W 074°08'0 0.0
2016-Dec-04 22:33N 40°38' W 074°08'0 0.0
2016-Dec-04 21:33N 40°38' W 074°08'0 0.1
2016-Dec-04 20:33N 40°38' W 074°08'2 2.1
2016-Dec-04 19:33N 40°41' W 074°08'2 2.0
2016-Dec-04 18:31N 40°38' W 074°08'0 0.0
2016-Dec-04 17:30N 40°38' W 074°08'0 0.0
2016-Dec-04 16:31N 40°38' W 074°08'0 0.0
2016-Dec-04 15:31N 40°38' W 074°08'0 0.0
2016-Dec-04 14:32N 40°38' W 074°08'0 0.0
2016-Dec-04 13:33N 40°38' W 074°08'0 0.0
2016-Dec-04 11:26N 40°38' W 074°08'0 0.0
2016-Dec-04 10:28N 40°38' W 074°08'0 0.0
2016-Dec-04 09:33N 40°38' W 074°08'0 0.0
2016-Dec-04 08:33N 40°38' W 074°08'0 0.0
2016-Dec-04 07:07N 40°38' W 074°08'0 0.0
2016-Dec-04 06:12N 40°38' W 074°08'0 0.0
2016-Dec-04 05:29N 40°38' W 074°08'0 0.0
2016-Dec-04 04:32N 40°38' W 074°08'0 0.0
2016-Dec-04 03:33N 40°38' W 074°08'0 0.0
2016-Dec-04 02:26N 40°38' W 074°08'0 0.0
2016-Dec-04 01:34N 40°38' W 074°08'0 0.0
2016-Dec-04 00:33N 40°38' W 074°08'0 0.0
2016-Dec-03 23:33N 40°38' W 074°08'3 2.7
2016-Dec-03 22:33N 40°39' W 074°04'1 1.1
2016-Dec-03 21:33N 40°39' W 074°06'1 0.8
2016-Dec-03 20:33N 40°39' W 074°07'1 0.3
2016-Dec-03 17:31N 40°38' W 074°08'0 0.0
2016-Dec-03 16:25N 40°38' W 074°08'0 0.0
2016-Dec-03 15:26N 40°38' W 074°08'0 0.0
2016-Dec-03 14:33N 40°38' W 074°08'0 0.0
2016-Dec-03 13:31N 40°38' W 074°08'1 0.2
2016-Dec-03 10:34N 40°39' W 074°09'3 2.6
2016-Dec-03 09:33N 40°38' W 074°12'5 5.4
2016-Dec-03 08:33N 40°39' W 074°05'3 2.5
2016-Dec-03 07:33N 40°37' W 074°03'4 3.7
2016-Dec-03 06:33N 40°38' W 074°08'0 0.0
2016-Dec-03 05:32N 40°38' W 074°08'0 0.0
2016-Dec-03 04:33N 40°38' W 074°08'3 3.4
2016-Dec-03 03:32N 40°38' W 074°12'3 2.3
2016-Dec-03 02:22N 40°35' W 074°13'3 3.7
2016-Dec-03 01:33N 40°38' W 074°12'3 3.3
2016-Dec-03 00:33N 40°38' W 074°08'0 0.0
2016-Dec-02 23:33N 40°38' W 074°08'0 0.0
2016-Dec-02 22:32N 40°38' W 074°08'0 0.0
2016-Dec-02 20:33N 40°38' W 074°08'0 0.0
2016-Dec-02 18:32N 40°38' W 074°08'0 0.0
2016-Dec-02 17:32N 40°38' W 074°08'0 0.0
2016-Dec-02 16:10N 40°38' W 074°08'3 5.3
2016-Dec-02 15:34N 40°38' W 074°04'3 1.6
2016-Dec-02 13:32N 40°38' W 074°08'0 0.0
2016-Dec-02 12:30N 40°38' W 074°08'1 1.3
2016-Dec-02 11:34N 40°39' W 074°09'1 0.6
2016-Dec-02 10:32N 40°40' W 074°08'2 1.5
2016-Dec-02 09:29N 40°38' W 074°08'0 0.0
2016-Dec-02 04:29N 40°38' W 074°08'4 0.8
2016-Dec-01 23:33N 40°36' W 074°12'2 2.3
2016-Dec-01 22:33N 40°39' W 074°11'3 2.7
2016-Dec-01 21:33N 40°38' W 074°08'4 4.0
2016-Dec-01 20:33N 40°39' W 074°03'4 4.0
2016-Dec-01 19:33N 40°38' W 074°08'0 0.0
2016-Dec-01 18:33N 40°38' W 074°08'0 0.0
2016-Dec-01 17:33N 40°38' W 074°08'0 0.0
2016-Dec-01 16:33N 40°38' W 074°08'2 1.7
2016-Dec-01 15:33N 40°39' W 074°10'4 4.2
2016-Dec-01 14:33N 40°35' W 074°13'0 0.1
2016-Dec-01 11:31N 40°35' W 074°13'2 1.9
2016-Dec-01 10:33N 40°36' W 074°12'4 4.0
2016-Dec-01 09:33N 40°38' W 074°08'4 3.6
2016-Dec-01 08:33N 40°37' W 074°03'4 3.6
2016-Dec-01 07:33N 40°38' W 074°08'0 0.0
2016-Dec-01 06:33N 40°38' W 074°08'0 0.0
2016-Dec-01 05:33N 40°38' W 074°08'0 0.0
2016-Dec-01 04:33N 40°38' W 074°08'0 0.0
2016-Dec-01 03:15N 40°38' W 074°08'0 0.0
2016-Dec-01 02:26N 40°38' W 074°08'0 0.0
2016-Dec-01 01:33N 40°38' W 074°08'0 0.0
2016-Dec-01 00:32N 40°38' W 074°08'0 0.0
2016-Nov-30 23:33N 40°38' W 074°08'0 0.0
2016-Nov-30 22:33N 40°38' W 074°08'0 0.0
2016-Nov-30 21:33N 40°38' W 074°08'0 0.0
2016-Nov-30 20:29N 40°38' W 074°08'0 0.0
2016-Nov-30 19:33N 40°38' W 074°08'0 0.4
2016-Nov-30 18:34N 40°39' W 074°07'1 1.0
2016-Nov-30 17:33N 40°39' W 074°06'1 1.4
2016-Nov-30 16:33N 40°38' W 074°08'4 3.9
2016-Nov-30 15:33N 40°39' W 074°03'4 3.8
2016-Nov-30 14:33N 40°38' W 074°08'0 0.0
2016-Nov-30 13:33N 40°38' W 074°08'0 0.0
2016-Nov-30 12:33N 40°38' W 074°08'0 0.0
2016-Nov-30 11:33N 40°38' W 074°08'0 0.0
2016-Nov-30 10:32N 40°38' W 074°08'0 0.0
2016-Nov-30 09:33N 40°38' W 074°08'0 0.0
2016-Nov-30 08:33N 40°38' W 074°08'0 0.0
2016-Nov-30 07:33N 40°38' W 074°08'0 0.0
2016-Nov-30 06:33N 40°38' W 074°08'0 0.0
2016-Nov-30 05:33N 40°38' W 074°08'0 0.0
2016-Nov-30 04:33N 40°38' W 074°08'0 0.0
2016-Nov-30 03:33N 40°38' W 074°08'0 0.0
2016-Nov-30 02:32N 40°38' W 074°08'0 0.0
2016-Nov-30 01:33N 40°38' W 074°08'0 0.4
2016-Nov-30 00:33N 40°39' W 074°07'1 1.1
2016-Nov-29 23:33N 40°39' W 074°06'0 0.0
2016-Nov-29 22:33N 40°39' W 074°06'4 4.2
2016-Nov-29 21:33N 40°39' W 074°11'1 0.9
2016-Nov-29 20:33N 40°39' W 074°10'2 2.0
2016-Nov-29 19:33N 40°38' W 074°08'0 0.0
2016-Nov-29 18:31N 40°38' W 074°08'4 3.7
2016-Nov-29 17:33N 40°38' W 074°03'4 3.6
2016-Nov-29 16:33N 40°38' W 074°08'0 0.0
2016-Nov-29 15:32N 40°38' W 074°08'0 0.0
2016-Nov-29 14:33N 40°38' W 074°08'0 0.0
2016-Nov-29 13:33N 40°38' W 074°08'0 0.0
2016-Nov-29 12:33N 40°38' W 074°08'0 0.0
2016-Nov-29 11:33N 40°38' W 074°08'0 0.0
2016-Nov-29 10:33N 40°38' W 074°08'0 0.0
2016-Nov-29 09:33N 40°38' W 074°08'0 0.0
2016-Nov-29 08:33N 40°38' W 074°08'0 0.0
2016-Nov-29 07:33N 40°38' W 074°08'0 0.0
2016-Nov-29 06:31N 40°38' W 074°08'0 0.0
2016-Nov-29 05:30N 40°38' W 074°08'1 0.7
2016-Nov-29 04:33N 40°39' W 074°07'1 0.7
2016-Nov-29 03:33N 40°39' W 074°06'0 0.3
2016-Nov-29 02:33N 40°39' W 074°06'0 0.0
2016-Nov-29 01:31N 40°39' W 074°06'1 1.5
2016-Nov-29 00:33N 40°40' W 074°05'1 1.0
2016-Nov-28 23:33N 40°39' W 074°05'2 2.0
2016-Nov-28 22:31N 40°38' W 074°08'0 0.0
2016-Nov-28 21:33N 40°38' W 074°08'0 0.0
2016-Nov-28 20:33N 40°38' W 074°08'0 0.0
2016-Nov-28 19:25N 40°38' W 074°08'0 0.0
2016-Nov-28 18:33N 40°38' W 074°08'0 0.0
2016-Nov-28 17:33N 40°38' W 074°08'0 0.0
2016-Nov-28 16:33N 40°38' W 074°08'0 0.0
2016-Nov-28 15:33N 40°38' W 074°08'0 0.0
2016-Nov-28 14:33N 40°38' W 074°08'4 3.9
2016-Nov-28 13:34N 40°40' W 074°03'2 2.4
2016-Nov-28 12:34N 40°39' W 074°06'2 1.6
2016-Nov-28 11:33N 40°38' W 074°08'0 0.0
2016-Nov-28 10:33N 40°38' W 074°08'0 0.0
2016-Nov-28 09:33N 40°38' W 074°08'0 0.0
2016-Nov-28 08:33N 40°38' W 074°08'0 0.0
2016-Nov-28 07:33N 40°38' W 074°08'0 0.0
2016-Nov-28 06:33N 40°38' W 074°08'0 0.0
2016-Nov-28 05:33N 40°38' W 074°08'0 0.0
2016-Nov-28 04:33N 40°38' W 074°08'0 0.0
2016-Nov-28 03:33N 40°38' W 074°08'0 0.0
2016-Nov-28 02:33N 40°38' W 074°08'0 0.0
2016-Nov-28 01:33N 40°38' W 074°08'0 0.0
2016-Nov-28 00:33N 40°38' W 074°08'0 0.0
2016-Nov-27 23:33N 40°38' W 074°08'0 0.0
2016-Nov-27 22:33N 40°38' W 074°08'0 0.0
2016-Nov-27 21:33N 40°38' W 074°08'0 0.0
2016-Nov-27 20:33N 40°38' W 074°08'0 0.0
2016-Nov-27 19:33N 40°38' W 074°08'0 0.0
2016-Nov-27 18:33N 40°38' W 074°08'0 0.0
2016-Nov-27 17:33N 40°38' W 074°08'0 0.0
2016-Nov-27 16:31N 40°38' W 074°08'  
Track history (hours):
 
Tides and Currents Weather Stations Pressure Air Temp Water Temp Dewpoint Dewpoint Depression Visibility Wind Speed Wind Dir Waves Ship Positions

James Turecamo

Owner: Moran Towing Corporation, New Canaan, CT. More information available from US FCC via Universal Licensing System and Coast Guard Vessel Documentation Center.

Last reported at 2016-Dec-07 15:32 UTC. Time now 2016-Dec-07 16:23 UTC.
Position N 40°38' W 074°08'.

Length 30 m; draft 4.5 m.

Type: Tug. MMSI: 367073380.

Date/timePositionNaut miles runAvg speedWind from/ knotsBaromVisibWave heightAir tempDewpointWater temp
2016-Dec-07 15:32N 40°38' W 074°08'0 0.0
2016-Dec-07 14:33N 40°38' W 074°08'0 0.0
2016-Dec-07 13:33N 40°38' W 074°08'0 0.0
2016-Dec-07 12:32N 40°38' W 074°08'0 0.0
2016-Dec-07 11:33N 40°38' W 074°08'0 0.0
2016-Dec-07 10:32N 40°38' W 074°08'0 0.0
2016-Dec-07 08:16N 40°38' W 074°08'0 0.0
2016-Dec-07 07:32N 40°38' W 074°08'0 0.0
2016-Dec-07 06:26N 40°38' W 074°08'1 0.5
2016-Dec-07 03:34N 40°39' W 074°06'1 0.7
2016-Dec-07 02:33N 40°39' W 074°07'3 3.2
2016-Dec-07 01:33N 40°42' W 074°08'2 2.1
2016-Dec-07 00:33N 40°40' W 074°09'1 1.3
2016-Dec-06 23:33N 40°38' W 074°08'0 0.0
2016-Dec-06 22:33N 40°38' W 074°08'0 0.0
2016-Dec-06 21:32N 40°38' W 074°08'2 2.3
2016-Dec-06 20:33N 40°39' W 074°05'1 0.4
2016-Dec-06 18:33N 40°40' W 074°04'0 0.0
2016-Dec-06 17:33N 40°40' W 074°04'1 0.7
2016-Dec-06 16:33N 40°39' W 074°05'2 2.2
2016-Dec-06 15:33N 40°38' W 074°08'0 0.0
2016-Dec-06 14:24N 40°38' W 074°08'0 0.0
2016-Dec-06 13:13N 40°38' W 074°08'0 0.0
2016-Dec-06 11:32N 40°38' W 074°08'0 0.0
2016-Dec-06 10:33N 40°38' W 074°08'0 0.0
2016-Dec-06 09:33N 40°38' W 074°08'0 0.0
2016-Dec-06 08:33N 40°38' W 074°08'0 0.0
2016-Dec-06 07:33N 40°38' W 074°08'0 0.0
2016-Dec-06 06:33N 40°38' W 074°08'0 0.0
2016-Dec-06 05:33N 40°38' W 074°08'0 0.0
2016-Dec-06 04:33N 40°38' W 074°08'0 0.0
2016-Dec-06 03:33N 40°38' W 074°08'0 0.0
2016-Dec-06 02:33N 40°38' W 074°08'0 0.0
2016-Dec-06 01:33N 40°38' W 074°08'3 2.8
2016-Dec-06 00:33N 40°38' W 074°11'1 0.9
2016-Dec-05 23:33N 40°38' W 074°12'1 0.9
2016-Dec-05 22:33N 40°38' W 074°11'3 2.8
2016-Dec-05 21:33N 40°38' W 074°08'0 0.0
2016-Dec-05 20:18N 40°38' W 074°08'0 0.0
2016-Dec-05 18:33N 40°38' W 074°08'0 0.0
2016-Dec-05 17:33N 40°38' W 074°08'4 4.3
2016-Dec-05 16:33N 40°40' W 074°02'4 4.3
2016-Dec-05 15:33N 40°38' W 074°08'0 0.0
2016-Dec-05 14:33N 40°38' W 074°08'0 0.0
2016-Dec-05 12:31N 40°38' W 074°08'0 0.0
2016-Dec-05 11:31N 40°38' W 074°08'0 0.0
2016-Dec-05 10:32N 40°38' W 074°08'0 0.0
2016-Dec-05 09:19N 40°38' W 074°08'0 0.0
2016-Dec-05 08:33N 40°38' W 074°08'3 3.4
2016-Dec-05 07:33N 40°38' W 074°12'3 2.7
2016-Dec-05 06:15N 40°38' W 074°08'0 0.0
2016-Dec-05 03:23N 40°38' W 074°08'0 0.0
2016-Dec-05 02:33N 40°38' W 074°08'0 0.0
2016-Dec-05 01:32N 40°38' W 074°08'0 0.0
2016-Dec-05 00:31N 40°38' W 074°08'0 0.0
2016-Dec-04 23:32N 40°38' W 074°08'0 0.0
2016-Dec-04 22:33N 40°38' W 074°08'0 0.0
2016-Dec-04 21:33N 40°38' W 074°08'0 0.1
2016-Dec-04 20:33N 40°38' W 074°08'2 2.1
2016-Dec-04 19:33N 40°41' W 074°08'2 2.0
2016-Dec-04 18:31N 40°38' W 074°08'0 0.0
2016-Dec-04 17:30N 40°38' W 074°08'0 0.0
2016-Dec-04 16:31N 40°38' W 074°08'0 0.0
2016-Dec-04 15:31N 40°38' W 074°08'0 0.0
2016-Dec-04 14:32N 40°38' W 074°08'0 0.0
2016-Dec-04 13:33N 40°38' W 074°08'0 0.0
2016-Dec-04 11:26N 40°38' W 074°08'0 0.0
2016-Dec-04 10:28N 40°38' W 074°08'0 0.0
2016-Dec-04 09:33N 40°38' W 074°08'0 0.0
2016-Dec-04 08:33N 40°38' W 074°08'0 0.0
2016-Dec-04 07:07N 40°38' W 074°08'0 0.0
2016-Dec-04 06:12N 40°38' W 074°08'0 0.0
2016-Dec-04 05:29N 40°38' W 074°08'0 0.0
2016-Dec-04 04:32N 40°38' W 074°08'0 0.0
2016-Dec-04 03:33N 40°38' W 074°08'0 0.0
2016-Dec-04 02:26N 40°38' W 074°08'0 0.0
2016-Dec-04 01:34N 40°38' W 074°08'0 0.0
2016-Dec-04 00:33N 40°38' W 074°08'0 0.0
2016-Dec-03 23:33N 40°38' W 074°08'3 2.7
2016-Dec-03 22:33N 40°39' W 074°04'1 1.1
2016-Dec-03 21:33N 40°39' W 074°06'1 0.8
2016-Dec-03 20:33N 40°39' W 074°07'1 0.3
2016-Dec-03 17:31N 40°38' W 074°08'0 0.0
2016-Dec-03 16:25N 40°38' W 074°08'0 0.0
2016-Dec-03 15:26N 40°38' W 074°08'0 0.0
2016-Dec-03 14:33N 40°38' W 074°08'0 0.0
2016-Dec-03 13:31N 40°38' W 074°08'1 0.2
2016-Dec-03 10:34N 40°39' W 074°09'3 2.6
2016-Dec-03 09:33N 40°38' W 074°12'5 5.4
2016-Dec-03 08:33N 40°39' W 074°05'3 2.5
2016-Dec-03 07:33N 40°37' W 074°03'4 3.7
2016-Dec-03 06:33N 40°38' W 074°08'0 0.0
2016-Dec-03 05:32N 40°38' W 074°08'0 0.0
2016-Dec-03 04:33N 40°38' W 074°08'3 3.4
2016-Dec-03 03:32N 40°38' W 074°12'3 2.3
2016-Dec-03 02:22N 40°35' W 074°13'3 3.7
2016-Dec-03 01:33N 40°38' W 074°12'3 3.3
2016-Dec-03 00:33N 40°38' W 074°08'0 0.0
2016-Dec-02 23:33N 40°38' W 074°08'0 0.0
2016-Dec-02 22:32N 40°38' W 074°08'0 0.0
2016-Dec-02 20:33N 40°38' W 074°08'0 0.0
2016-Dec-02 18:32N 40°38' W 074°08'0 0.0
2016-Dec-02 17:32N 40°38' W 074°08'0 0.0
2016-Dec-02 16:10N 40°38' W 074°08'3 5.3
2016-Dec-02 15:34N 40°38' W 074°04'3 1.6
2016-Dec-02 13:32N 40°38' W 074°08'0 0.0
2016-Dec-02 12:30N 40°38' W 074°08'1 1.3
2016-Dec-02 11:34N 40°39' W 074°09'1 0.6
2016-Dec-02 10:32N 40°40' W 074°08'2 1.5
2016-Dec-02 09:29N 40°38' W 074°08'0 0.0
2016-Dec-02 04:29N 40°38' W 074°08'4 0.8
2016-Dec-01 23:33N 40°36' W 074°12'2 2.3
2016-Dec-01 22:33N 40°39' W 074°11'3 2.7
2016-Dec-01 21:33N 40°38' W 074°08'4 4.0
2016-Dec-01 20:33N 40°39' W 074°03'4 4.0
2016-Dec-01 19:33N 40°38' W 074°08'0 0.0
2016-Dec-01 18:33N 40°38' W 074°08'0 0.0
2016-Dec-01 17:33N 40°38' W 074°08'0 0.0
2016-Dec-01 16:33N 40°38' W 074°08'2 1.7
2016-Dec-01 15:33N 40°39' W 074°10'4 4.2
2016-Dec-01 14:33N 40°35' W 074°13'0 0.1
2016-Dec-01 11:31N 40°35' W 074°13'2 1.9
2016-Dec-01 10:33N 40°36' W 074°12'4 4.0
2016-Dec-01 09:33N 40°38' W 074°08'4 3.6
2016-Dec-01 08:33N 40°37' W 074°03'4 3.6
2016-Dec-01 07:33N 40°38' W 074°08'0 0.0
2016-Dec-01 06:33N 40°38' W 074°08'0 0.0
2016-Dec-01 05:33N 40°38' W 074°08'0 0.0
2016-Dec-01 04:33N 40°38' W 074°08'0 0.0
2016-Dec-01 03:15N 40°38' W 074°08'0 0.0
2016-Dec-01 02:26N 40°38' W 074°08'0 0.0
2016-Dec-01 01:33N 40°38' W 074°08'0 0.0
2016-Dec-01 00:32N 40°38' W 074°08'0 0.0
2016-Nov-30 23:33N 40°38' W 074°08'0 0.0
2016-Nov-30 22:33N 40°38' W 074°08'0 0.0
2016-Nov-30 21:33N 40°38' W 074°08'0 0.0
2016-Nov-30 20:29N 40°38' W 074°08'0 0.0
2016-Nov-30 19:33N 40°38' W 074°08'0 0.4
2016-Nov-30 18:34N 40°39' W 074°07'1 1.0
2016-Nov-30 17:33N 40°39' W 074°06'1 1.4
2016-Nov-30 16:33N 40°38' W 074°08'4 3.9
2016-Nov-30 15:33N 40°39' W 074°03'4 3.8
2016-Nov-30 14:33N 40°38' W 074°08'0 0.0
2016-Nov-30 13:33N 40°38' W 074°08'0 0.0
2016-Nov-30 12:33N 40°38' W 074°08'0 0.0
2016-Nov-30 11:33N 40°38' W 074°08'0 0.0
2016-Nov-30 10:32N 40°38' W 074°08'0 0.0
2016-Nov-30 09:33N 40°38' W 074°08'0 0.0
2016-Nov-30 08:33N 40°38' W 074°08'0 0.0
2016-Nov-30 07:33N 40°38' W 074°08'0 0.0
2016-Nov-30 06:33N 40°38' W 074°08'0 0.0
2016-Nov-30 05:33N 40°38' W 074°08'0 0.0
2016-Nov-30 04:33N 40°38' W 074°08'0 0.0
2016-Nov-30 03:33N 40°38' W 074°08'0 0.0
2016-Nov-30 02:32N 40°38' W 074°08'0 0.0
2016-Nov-30 01:33N 40°38' W 074°08'0 0.4
2016-Nov-30 00:33N 40°39' W 074°07'1 1.1
2016-Nov-29 23:33N 40°39' W 074°06'0 0.0
2016-Nov-29 22:33N 40°39' W 074°06'4 4.2
2016-Nov-29 21:33N 40°39' W 074°11'1 0.9
2016-Nov-29 20:33N 40°39' W 074°10'2 2.0
2016-Nov-29 19:33N 40°38' W 074°08'0 0.0
2016-Nov-29 18:31N 40°38' W 074°08'4 3.7
2016-Nov-29 17:33N 40°38' W 074°03'4 3.6
2016-Nov-29 16:33N 40°38' W 074°08'0 0.0
2016-Nov-29 15:32N 40°38' W 074°08'0 0.0
2016-Nov-29 14:33N 40°38' W 074°08'0 0.0
2016-Nov-29 13:33N 40°38' W 074°08'0 0.0
2016-Nov-29 12:33N 40°38' W 074°08'0 0.0
2016-Nov-29 11:33N 40°38' W 074°08'0 0.0
2016-Nov-29 10:33N 40°38' W 074°08'0 0.0
2016-Nov-29 09:33N 40°38' W 074°08'0 0.0
2016-Nov-29 08:33N 40°38' W 074°08'0 0.0
2016-Nov-29 07:33N 40°38' W 074°08'0 0.0
2016-Nov-29 06:31N 40°38' W 074°08'0 0.0
2016-Nov-29 05:30N 40°38' W 074°08'1 0.7
2016-Nov-29 04:33N 40°39' W 074°07'1 0.7
2016-Nov-29 03:33N 40°39' W 074°06'0 0.3
2016-Nov-29 02:33N 40°39' W 074°06'0 0.0
2016-Nov-29 01:31N 40°39' W 074°06'1 1.5
2016-Nov-29 00:33N 40°40' W 074°05'1 1.0
2016-Nov-28 23:33N 40°39' W 074°05'2 2.0
2016-Nov-28 22:31N 40°38' W 074°08'0 0.0
2016-Nov-28 21:33N 40°38' W 074°08'0 0.0
2016-Nov-28 20:33N 40°38' W 074°08'0 0.0
2016-Nov-28 19:25N 40°38' W 074°08'0 0.0
2016-Nov-28 18:33N 40°38' W 074°08'0 0.0
2016-Nov-28 17:33N 40°38' W 074°08'0 0.0
2016-Nov-28 16:33N 40°38' W 074°08'0 0.0
2016-Nov-28 15:33N 40°38' W 074°08'0 0.0
2016-Nov-28 14:33N 40°38' W 074°08'4 3.9
2016-Nov-28 13:34N 40°40' W 074°03'2 2.4
2016-Nov-28 12:34N 40°39' W 074°06'2 1.6
2016-Nov-28 11:33N 40°38' W 074°08'0 0.0
2016-Nov-28 10:33N 40°38' W 074°08'0 0.0
2016-Nov-28 09:33N 40°38' W 074°08'0 0.0
2016-Nov-28 08:33N 40°38' W 074°08'0 0.0
2016-Nov-28 07:33N 40°38' W 074°08'0 0.0
2016-Nov-28 06:33N 40°38' W 074°08'0 0.0
2016-Nov-28 05:33N 40°38' W 074°08'0 0.0
2016-Nov-28 04:33N 40°38' W 074°08'0 0.0
2016-Nov-28 03:33N 40°38' W 074°08'0 0.0
2016-Nov-28 02:33N 40°38' W 074°08'0 0.0
2016-Nov-28 01:33N 40°38' W 074°08'0 0.0
2016-Nov-28 00:33N 40°38' W 074°08'0 0.0
2016-Nov-27 23:33N 40°38' W 074°08'0 0.0
2016-Nov-27 22:33N 40°38' W 074°08'0 0.0
2016-Nov-27 21:33N 40°38' W 074°08'0 0.0
2016-Nov-27 20:33N 40°38' W 074°08'0 0.0
2016-Nov-27 19:33N 40°38' W 074°08'0 0.0
2016-Nov-27 18:33N 40°38' W 074°08'0 0.0
2016-Nov-27 17:33N 40°38' W 074°08'0 0.0
2016-Nov-27 16:31N 40°38' W 074°08'  

Dump ship's entire track history